Time;durP1;ratioP1;P1;durP2;ratioP2;P2;SDS_P1;SDS_P2;PMS_P1;PMS_P2;Temp;Humidity;BMP_temperature;BMP_pressure;BME280_temperature;BME280_humidity;BME280_pressure;Samples;Min_cycle;Max_cycle;Signal;HPM_P1;HPM_P2
2023/06/10 00:01:43;;;;;;;8.63;6.63;;;;;;;;;;5043038;28;20459;-74
2023/06/10 00:04:09;;;;;;;8.37;7.67;;;;;;;;;;5052436;28;20850;-74
2023/06/10 00:06:36;;;;;;;7.23;6.63;;;;;;;;;;5047756;28;20436;-73
2023/06/10 00:09:05;;;;;;;8.77;7.93;;;;;;;;;;5049845;28;20435;-73
2023/06/10 00:11:32;;;;;;;9.83;7.57;;;;;;;;;;5050081;28;20387;-73
2023/06/10 00:13:58;;;;;;;8.33;7.53;;;;;;;;;;5050970;28;20405;-74
2023/06/10 00:16:24;;;;;;;8.97;7.07;;;;;;;;;;5046367;28;20562;-73
2023/06/10 00:18:51;;;;;;;8.10;7.40;;;;;;;;;;5042822;28;20419;-74
2023/06/10 00:21:17;;;;;;;9.27;7.67;;;;;;;;;;5044561;28;20512;-73
2023/06/10 00:23:43;;;;;;;7.47;6.77;;;;;;;;;;5046371;28;20440;-73
2023/06/10 00:26:09;;;;;;;7.70;6.93;;;;;;;;;;5054398;28;20417;-73
2023/06/10 00:28:35;;;;;;;9.17;8.30;;;;;;;;;;5052808;28;20416;-73
2023/06/10 00:31:02;;;;;;;8.43;7.70;;;;;;;;;;5049694;28;20422;-74
2023/06/10 00:33:29;;;;;;;8.17;7.37;;;;;;;;;;5051666;28;20475;-73
2023/06/10 00:35:55;;;;;;;12.60;8.30;;;;;;;;;;5042105;28;20480;-73
2023/06/10 00:38:21;;;;;;;9.30;8.40;;;;;;;;;;5049943;28;20504;-73
2023/06/10 00:40:47;;;;;;;8.30;7.57;;;;;;;;;;5050236;28;20472;-73
2023/06/10 00:43:13;;;;;;;10.30;8.60;;;;;;;;;;5043992;28;20509;-73
2023/06/10 00:45:39;;;;;;;10.67;8.57;;;;;;;;;;5041771;28;20433;-73
2023/06/10 00:48:05;;;;;;;9.27;8.43;;;;;;;;;;5054437;28;20429;-73
2023/06/10 00:50:32;;;;;;;9.93;8.90;;;;;;;;;;5049229;28;20409;-73
2023/06/10 00:52:59;;;;;;;9.50;8.43;;;;;;;;;;5043075;28;20409;-73
2023/06/10 00:55:27;;;;;;;11.03;8.70;;;;;;;;;;5044893;28;20551;-73
2023/06/10 00:57:54;;;;;;;9.43;8.43;;;;;;;;;;5049276;28;20414;-73
2023/06/10 01:00:20;;;;;;;9.63;8.63;;;;;;;;;;5046862;28;20877;-73
2023/06/10 01:02:46;;;;;;;11.00;8.73;;;;;;;;;;5045679;28;20528;-73
2023/06/10 01:05:13;;;;;;;9.07;8.13;;;;;;;;;;5050090;28;20434;-73
2023/06/10 01:08:02;;;;;;;9.90;8.83;;;;;;;;;;5045857;28;20411;-73
2023/06/10 01:10:55;;;;;;;9.93;9.03;;;;;;;;;;5047010;28;20442;-73
2023/06/10 01:13:23;;;;;;;9.73;8.83;;;;;;;;;;5048706;28;20447;-73
2023/06/10 01:15:50;;;;;;;9.43;8.53;;;;;;;;;;5045264;28;20479;-73
2023/06/10 01:18:16;;;;;;;9.80;8.73;;;;;;;;;;5049208;28;20460;-73
2023/06/10 01:20:43;;;;;;;12.43;9.90;;;;;;;;;;5045299;28;20419;-73
2023/06/10 01:23:10;;;;;;;9.43;8.53;;;;;;;;;;5041089;28;20439;-74
2023/06/10 01:25:42;;;;;;;10.03;9.13;;;;;;;;;;5040773;28;20415;-73
2023/06/10 01:28:08;;;;;;;10.80;9.93;;;;;;;;;;5049131;28;20535;-73
2023/06/10 01:30:41;;;;;;;10.43;9.53;;;;;;;;;;5041185;28;20928;-73
2023/06/10 01:33:10;;;;;;;10.53;8.87;;;;;;;;;;5044735;28;20819;-73
2023/06/10 01:35:37;;;;;;;11.50;10.30;;;;;;;;;;5049895;28;20554;-73
2023/06/10 01:38:04;;;;;;;11.83;10.43;;;;;;;;;;5039499;28;20467;-73
2023/06/10 01:40:30;;;;;;;12.00;10.80;;;;;;;;;;5045429;28;20869;-73
2023/06/10 01:42:56;;;;;;;13.37;10.80;;;;;;;;;;5057099;28;20442;-73
2023/06/10 01:45:22;;;;;;;11.73;10.57;;;;;;;;;;5042088;28;20499;-73
2023/06/10 01:47:48;;;;;;;12.00;9.73;;;;;;;;;;5048228;28;20471;-73
2023/06/10 01:50:16;;;;;;;12.87;9.43;;;;;;;;;;5044649;28;20418;-73
2023/06/10 01:52:42;;;;;;;11.33;10.13;;;;;;;;;;5050210;28;20427;-73
2023/06/10 01:55:08;;;;;;;10.93;10.03;;;;;;;;;;5045423;28;20447;-73
2023/06/10 01:57:34;;;;;;;11.50;10.40;;;;;;;;;;5053011;28;20805;-73
2023/06/10 02:00:00;;;;;;;10.80;9.70;;;;;;;;;;5053598;28;20403;-73
2023/06/10 02:02:26;;;;;;;11.50;10.60;;;;;;;;;;5047540;28;20440;-73
2023/06/10 02:04:52;;;;;;;11.60;10.50;;;;;;;;;;5044838;28;20420;-73
2023/06/10 02:07:18;;;;;;;11.77;10.67;;;;;;;;;;5050329;28;20780;-73
2023/06/10 02:09:44;;;;;;;13.93;12.17;;;;;;;;;;5047614;28;20414;-73
2023/06/10 02:12:11;;;;;;;11.13;10.13;;;;;;;;;;5051565;28;20430;-73
2023/06/10 02:14:37;;;;;;;13.10;11.80;;;;;;;;;;5045241;28;20480;-73
2023/06/10 02:17:04;;;;;;;11.93;10.73;;;;;;;;;;5042377;28;20933;-73
2023/06/10 02:19:30;;;;;;;13.43;10.60;;;;;;;;;;5039932;28;20482;-74
2023/06/10 02:21:56;;;;;;;14.63;12.53;;;;;;;;;;5045817;28;20520;-73
2023/06/10 02:24:22;;;;;;;13.03;11.90;;;;;;;;;;5046983;28;20769;-73
2023/06/10 02:26:48;;;;;;;13.23;12.03;;;;;;;;;;5043307;28;20399;-73
2023/06/10 02:29:14;;;;;;;16.13;11.10;;;;;;;;;;5051967;28;20436;-73
2023/06/10 02:31:41;;;;;;;14.37;12.67;;;;;;;;;;5041756;28;20480;-73
2023/06/10 02:34:07;;;;;;;12.20;11.20;;;;;;;;;;5052839;28;20501;-73
2023/06/10 02:36:35;;;;;;;12.50;11.33;;;;;;;;;;5045177;28;20465;-73
2023/06/10 02:39:01;;;;;;;13.33;12.00;;;;;;;;;;5052987;28;20418;-73
2023/06/10 02:41:27;;;;;;;12.43;11.33;;;;;;;;;;5043617;28;20432;-73
2023/06/10 02:43:53;;;;;;;13.40;11.60;;;;;;;;;;5047553;28;20465;-72
2023/06/10 02:46:19;;;;;;;13.47;12.17;;;;;;;;;;5046698;28;20842;-73
2023/06/10 02:48:46;;;;;;;11.77;10.73;;;;;;;;;;5044266;28;20409;-73
2023/06/10 02:51:12;;;;;;;11.93;10.90;;;;;;;;;;5046291;28;20390;-74
2023/06/10 02:53:38;;;;;;;10.50;9.70;;;;;;;;;;5043481;28;20393;-73
2023/06/10 02:56:04;;;;;;;11.70;10.70;;;;;;;;;;5045890;28;20990;-73
2023/06/10 02:58:30;;;;;;;11.80;10.60;;;;;;;;;;5049348;28;20407;-73
2023/06/10 03:00:58;;;;;;;12.37;11.23;;;;;;;;;;5051148;28;20406;-73
2023/06/10 03:03:25;;;;;;;11.13;10.13;;;;;;;;;;5047770;28;20451;-73
2023/06/10 03:05:51;;;;;;;12.33;11.13;;;;;;;;;;5046853;28;20447;-73
2023/06/10 03:08:17;;;;;;;13.97;11.80;;;;;;;;;;5044738;28;20421;-73
2023/06/10 03:10:43;;;;;;;11.63;10.50;;;;;;;;;;5049490;28;20434;-72
2023/06/10 03:13:10;;;;;;;13.00;11.50;;;;;;;;;;5049775;28;20898;-74
2023/06/10 03:15:37;;;;;;;12.57;11.37;;;;;;;;;;5041283;28;20435;-73
2023/06/10 03:18:03;;;;;;;11.90;10.13;;;;;;;;;;5046628;28;20784;-73
2023/06/10 03:20:29;;;;;;;11.20;10.20;;;;;;;;;;5054974;28;20401;-73
2023/06/10 03:22:55;;;;;;;11.33;10.43;;;;;;;;;;5048719;28;20451;-73
2023/06/10 03:25:22;;;;;;;13.10;11.70;;;;;;;;;;5048350;28;20440;-73
2023/06/10 03:27:48;;;;;;;12.70;11.50;;;;;;;;;;5042144;28;20403;-73
2023/06/10 03:30:14;;;;;;;12.50;11.20;;;;;;;;;;5051836;28;20475;-73
2023/06/10 03:32:40;;;;;;;13.30;11.73;;;;;;;;;;5051992;28;20457;-73
2023/06/10 03:35:07;;;;;;;12.60;11.50;;;;;;;;;;5058056;28;20452;-73
2023/06/10 03:37:33;;;;;;;13.87;12.57;;;;;;;;;;5041548;28;20395;-73
2023/06/10 03:39:59;;;;;;;13.90;12.63;;;;;;;;;;5048378;28;20425;-73
2023/06/10 03:42:25;;;;;;;11.57;10.57;;;;;;;;;;5064920;28;20402;-73
2023/06/10 03:44:51;;;;;;;13.00;11.60;;;;;;;;;;5046744;28;20419;-72
2023/06/10 03:47:17;;;;;;;13.83;12.37;;;;;;;;;;5052401;28;20515;-73
2023/06/10 03:49:43;;;;;;;21.13;13.57;;;;;;;;;;5045344;28;20410;-72
2023/06/10 03:52:09;;;;;;;15.27;12.00;;;;;;;;;;5049101;28;20545;-72
2023/06/10 03:54:35;;;;;;;13.33;12.20;;;;;;;;;;5055482;28;20494;-72
2023/06/10 03:57:02;;;;;;;11.87;10.77;;;;;;;;;;5053863;28;20421;-73
2023/06/10 03:59:29;;;;;;;18.17;13.33;;;;;;;;;;5053111;28;20763;-73
2023/06/10 04:01:55;;;;;;;15.67;14.07;;;;;;;;;;5056013;28;20766;-72
2023/06/10 04:04:21;;;;;;;12.77;11.67;;;;;;;;;;5053325;28;20430;-73
2023/06/10 04:06:48;;;;;;;13.90;12.43;;;;;;;;;;5047544;28;20443;-73
2023/06/10 04:09:15;;;;;;;13.57;11.90;;;;;;;;;;5052823;28;20490;-72
2023/06/10 04:11:41;;;;;;;16.63;13.17;;;;;;;;;;5049619;28;20468;-73
2023/06/10 04:14:07;;;;;;;13.17;11.83;;;;;;;;;;5052565;28;20432;-72
2023/06/10 04:16:34;;;;;;;14.30;12.90;;;;;;;;;;5044377;28;20814;-72
2023/06/10 04:19:01;;;;;;;15.97;14.30;;;;;;;;;;5046467;28;20911;-73
2023/06/10 04:21:27;;;;;;;13.23;12.03;;;;;;;;;;5054060;28;20416;-73
2023/06/10 04:23:53;;;;;;;15.83;12.53;;;;;;;;;;5047301;28;20546;-73
2023/06/10 04:26:19;;;;;;;14.03;12.53;;;;;;;;;;5060137;28;20430;-73
2023/06/10 04:28:45;;;;;;;18.67;14.17;;;;;;;;;;5050442;28;20427;-72
2023/06/10 04:31:11;;;;;;;13.53;12.33;;;;;;;;;;5048759;28;20406;-73
2023/06/10 04:33:37;;;;;;;14.00;12.37;;;;;;;;;;5048614;28;20415;-73
2023/06/10 04:36:04;;;;;;;14.30;12.80;;;;;;;;;;5050437;28;20468;-73
2023/06/10 04:38:31;;;;;;;13.20;12.00;;;;;;;;;;5048584;28;20749;-73
2023/06/10 04:40:57;;;;;;;14.57;13.07;;;;;;;;;;5050336;28;20462;-73
2023/06/10 04:43:23;;;;;;;13.53;12.33;;;;;;;;;;5046995;28;20413;-73
2023/06/10 04:45:49;;;;;;;14.50;12.90;;;;;;;;;;5055458;28;20894;-73
2023/06/10 04:48:15;;;;;;;14.30;11.80;;;;;;;;;;5053969;28;20791;-73
2023/06/10 04:50:41;;;;;;;14.80;13.50;;;;;;;;;;5054250;28;20419;-72
2023/06/10 04:53:07;;;;;;;14.80;13.40;;;;;;;;;;5050735;28;20418;-72
2023/06/10 04:55:34;;;;;;;16.40;14.60;;;;;;;;;;5048727;28;20476;-73
2023/06/10 04:58:00;;;;;;;16.87;14.67;;;;;;;;;;5055461;28;20932;-73
2023/06/10 05:00:26;;;;;;;15.40;13.10;;;;;;;;;;5045602;28;20414;-73
2023/06/10 05:02:52;;;;;;;15.37;14.07;;;;;;;;;;5052473;28;20461;-73
2023/06/10 05:05:18;;;;;;;16.60;13.57;;;;;;;;;;5046645;28;20411;-73
2023/06/10 05:07:44;;;;;;;17.87;15.00;;;;;;;;;;5043306;28;20452;-73
2023/06/10 05:10:12;;;;;;;17.00;14.30;;;;;;;;;;5049205;28;20496;-73
2023/06/10 05:12:38;;;;;;;16.30;14.60;;;;;;;;;;5046010;28;20428;-73
2023/06/10 05:15:04;;;;;;;14.77;13.17;;;;;;;;;;5047342;28;20450;-73
2023/06/10 05:17:30;;;;;;;14.27;12.97;;;;;;;;;;5053347;28;20543;-74
2023/06/10 05:19:56;;;;;;;20.53;14.67;;;;;;;;;;5053833;28;20980;-73
2023/06/10 05:22:24;;;;;;;14.90;13.50;;;;;;;;;;5048256;28;20444;-73
2023/06/10 05:24:51;;;;;;;16.03;13.30;;;;;;;;;;5048730;28;20497;-73
2023/06/10 05:27:17;;;;;;;14.23;12.97;;;;;;;;;;5045611;28;20492;-73
2023/06/10 05:29:43;;;;;;;14.60;12.90;;;;;;;;;;5050210;28;20406;-73
2023/06/10 05:32:09;;;;;;;14.60;13.20;;;;;;;;;;5051910;28;20473;-73
2023/06/10 05:34:35;;;;;;;14.30;12.67;;;;;;;;;;5053202;28;20440;-73
2023/06/10 05:37:01;;;;;;;13.60;12.20;;;;;;;;;;5050303;28;20422;-78
2023/06/10 05:39:27;;;;;;;13.57;12.47;;;;;;;;;;5049118;28;20755;-78
2023/06/10 05:41:53;;;;;;;16.83;12.70;;;;;;;;;;5055908;28;20485;-74
2023/06/10 05:44:19;;;;;;;14.17;12.73;;;;;;;;;;5043812;28;20870;-73
2023/06/10 05:46:45;;;;;;;14.07;12.47;;;;;;;;;;5046153;28;20436;-74
2023/06/10 05:49:11;;;;;;;13.93;12.53;;;;;;;;;;5049714;28;20412;-73
2023/06/10 05:51:38;;;;;;;15.57;13.97;;;;;;;;;;5040215;28;20482;-74
2023/06/10 05:54:04;;;;;;;16.30;13.03;;;;;;;;;;5050041;28;20419;-74
2023/06/10 05:56:30;;;;;;;14.73;12.13;;;;;;;;;;5045445;28;20950;-74
2023/06/10 05:58:56;;;;;;;14.97;12.60;;;;;;;;;;5048009;28;20807;-73
2023/06/10 06:01:22;;;;;;;12.40;11.20;;;;;;;;;;5050738;28;20553;-73
2023/06/10 06:03:48;;;;;;;11.63;10.53;;;;;;;;;;5052695;28;20437;-74
2023/06/10 06:06:14;;;;;;;12.33;9.40;;;;;;;;;;5044298;28;21144;-72
2023/06/10 06:08:40;;;;;;;9.80;8.80;;;;;;;;;;5051179;28;20764;-73
2023/06/10 06:11:06;;;;;;;9.13;8.20;;;;;;;;;;5055887;28;20412;-73
2023/06/10 06:13:32;;;;;;;8.23;7.10;;;;;;;;;;5048030;28;20410;-73
2023/06/10 06:15:58;;;;;;;7.87;7.17;;;;;;;;;;5048907;28;20811;-73
2023/06/10 06:18:24;;;;;;;7.77;7.00;;;;;;;;;;5052613;28;20538;-73
2023/06/10 06:20:53;;;;;;;8.30;7.10;;;;;;;;;;5050968;28;20415;-72
2023/06/10 06:23:19;;;;;;;7.27;6.57;;;;;;;;;;5051367;28;20854;-73
2023/06/10 06:25:45;;;;;;;8.03;7.23;;;;;;;;;;5050984;28;20461;-73
2023/06/10 06:28:11;;;;;;;8.00;7.20;;;;;;;;;;5046948;28;21056;-75
2023/06/10 06:30:37;;;;;;;7.73;7.03;;;;;;;;;;5047779;28;20408;-74
2023/06/10 06:33:03;;;;;;;7.67;6.53;;;;;;;;;;5048953;28;20468;-73
2023/06/10 06:35:33;;;;;;;8.47;6.90;;;;;;;;;;5045554;28;20472;-73
2023/06/10 06:38:00;;;;;;;7.80;6.30;;;;;;;;;;5047499;28;20505;-73
2023/06/10 06:40:26;;;;;;;9.90;5.93;;;;;;;;;;5048443;28;20436;-72
2023/06/10 06:42:52;;;;;;;7.83;6.23;;;;;;;;;;5053075;28;20784;-72
2023/06/10 06:45:18;;;;;;;7.57;6.63;;;;;;;;;;5040948;28;20449;-73
2023/06/10 06:47:44;;;;;;;10.83;6.57;;;;;;;;;;5049100;28;20798;-73
2023/06/10 06:50:10;;;;;;;6.57;5.93;;;;;;;;;;5059499;28;20424;-73
2023/06/10 06:52:36;;;;;;;8.77;6.20;;;;;;;;;;5048060;28;20453;-73
2023/06/10 06:55:02;;;;;;;7.50;6.40;;;;;;;;;;5047356;28;20515;-75
2023/06/10 06:57:28;;;;;;;6.80;6.20;;;;;;;;;;5040270;28;20487;-75
2023/06/10 06:59:54;;;;;;;7.10;6.13;;;;;;;;;;5050601;28;20435;-75
2023/06/10 07:02:20;;;;;;;6.60;6.00;;;;;;;;;;5048502;28;20526;-73
2023/06/10 07:04:49;;;;;;;6.57;5.53;;;;;;;;;;5038241;28;20832;-73
2023/06/10 07:07:15;;;;;;;7.90;5.63;;;;;;;;;;5039432;28;20481;-73
2023/06/10 07:09:41;;;;;;;7.70;6.70;;;;;;;;;;5046044;28;20430;-74
2023/06/10 07:12:07;;;;;;;8.37;6.30;;;;;;;;;;5048120;28;20430;-74
2023/06/10 07:14:34;;;;;;;9.43;6.43;;;;;;;;;;5040980;28;20472;-75
2023/06/10 07:17:00;;;;;;;7.30;5.90;;;;;;;;;;5053407;28;20471;-74
2023/06/10 07:19:26;;;;;;;7.00;6.20;;;;;;;;;;5055790;28;20417;-76
2023/06/10 07:21:52;;;;;;;6.80;5.70;;;;;;;;;;5062043;28;20407;-74
2023/06/10 07:24:19;;;;;;;6.77;5.90;;;;;;;;;;5053941;28;20935;-74
2023/06/10 07:26:45;;;;;;;7.20;6.50;;;;;;;;;;5048203;28;20437;-73
2023/06/10 07:29:12;;;;;;;7.40;6.27;;;;;;;;;;5048351;28;20453;-74
2023/06/10 07:31:38;;;;;;;6.57;5.87;;;;;;;;;;5047555;28;20484;-72
2023/06/10 07:34:04;;;;;;;6.93;6.23;;;;;;;;;;5055344;28;20458;-74
2023/06/10 07:36:30;;;;;;;7.30;5.90;;;;;;;;;;5051464;28;20468;-73
2023/06/10 07:38:56;;;;;;;7.03;6.20;;;;;;;;;;5050826;28;20435;-73
2023/06/10 07:41:25;;;;;;;6.50;5.90;;;;;;;;;;5052028;28;20938;-73
2023/06/10 07:43:54;;;;;;;8.90;6.37;;;;;;;;;;5048914;28;20412;-73
2023/06/10 07:46:20;;;;;;;6.47;5.83;;;;;;;;;;5043882;28;20489;-74
2023/06/10 07:48:46;;;;;;;8.10;5.97;;;;;;;;;;5046880;28;20423;-74
2023/06/10 07:51:12;;;;;;;8.53;6.03;;;;;;;;;;5047694;28;20431;-74
2023/06/10 07:53:38;;;;;;;7.00;6.07;;;;;;;;;;5051197;28;20577;-75
2023/06/10 07:56:04;;;;;;;7.30;6.60;;;;;;;;;;5055250;28;20476;-74
2023/06/10 07:58:30;;;;;;;7.93;6.27;;;;;;;;;;5049120;28;20444;-74
2023/06/10 08:00:56;;;;;;;6.77;5.80;;;;;;;;;;5051269;28;20930;-74
2023/06/10 08:03:22;;;;;;;7.20;6.50;;;;;;;;;;5048729;28;20481;-74
2023/06/10 08:05:48;;;;;;;6.80;5.50;;;;;;;;;;5043728;28;20499;-74
2023/06/10 08:08:14;;;;;;;6.37;5.50;;;;;;;;;;5043119;28;20779;-75
2023/06/10 08:10:40;;;;;;;7.73;5.50;;;;;;;;;;5047481;28;20417;-73
2023/06/10 08:13:06;;;;;;;6.43;5.70;;;;;;;;;;5045700;28;20429;-74
2023/06/10 08:15:32;;;;;;;7.90;5.47;;;;;;;;;;5045454;28;20472;-74
2023/06/10 08:17:58;;;;;;;6.63;5.50;;;;;;;;;;5050555;28;20459;-74
2023/06/10 08:20:25;;;;;;;5.97;5.20;;;;;;;;;;5053143;28;20438;-75
2023/06/10 08:22:51;;;;;;;8.60;5.80;;;;;;;;;;5046470;28;20516;-75
2023/06/10 08:25:17;;;;;;;6.87;6.27;;;;;;;;;;5045070;28;20530;-75
2023/06/10 08:27:43;;;;;;;6.40;5.80;;;;;;;;;;5052569;28;20514;-75
2023/06/10 08:30:10;;;;;;;6.30;5.80;;;;;;;;;;5048386;28;20484;-75
2023/06/10 08:32:36;;;;;;;6.10;5.53;;;;;;;;;;5046027;28;20468;-76
2023/06/10 08:35:03;;;;;;;6.67;6.07;;;;;;;;;;5053129;28;20809;-75
2023/06/10 08:37:30;;;;;;;6.50;5.30;;;;;;;;;;5044624;28;20445;-75
2023/06/10 08:39:56;;;;;;;7.50;6.00;;;;;;;;;;5044073;28;20437;-75
2023/06/10 08:42:28;;;;;;;6.17;5.60;;;;;;;;;;5052529;28;20527;-75
2023/06/10 08:44:55;;;;;;;7.13;5.93;;;;;;;;;;5044198;28;20435;-75
2023/06/10 08:47:23;;;;;;;7.20;5.70;;;;;;;;;;5055318;28;20454;-75
2023/06/10 08:49:49;;;;;;;6.50;5.73;;;;;;;;;;5051685;28;20425;-75
2023/06/10 08:52:16;;;;;;;5.30;4.80;;;;;;;;;;5050628;28;20415;-75
2023/06/10 08:54:43;;;;;;;7.27;5.23;;;;;;;;;;5048688;28;20477;-75
2023/06/10 08:57:09;;;;;;;8.00;5.70;;;;;;;;;;5047342;28;20440;-75
2023/06/10 08:59:37;;;;;;;6.60;5.50;;;;;;;;;;5045612;28;20436;-75
2023/06/10 09:02:03;;;;;;;7.53;5.30;;;;;;;;;;5048526;28;20496;-75
2023/06/10 09:04:29;;;;;;;5.80;5.30;;;;;;;;;;5044004;28;20796;-75
2023/06/10 09:06:56;;;;;;;6.13;5.27;;;;;;;;;;5040222;28;21675;-76
2023/06/10 09:09:23;;;;;;;5.27;4.77;;;;;;;;;;5047473;28;20947;-73
2023/06/10 09:11:49;;;;;;;6.97;5.50;;;;;;;;;;5043215;28;20834;-73
2023/06/10 09:14:16;;;;;;;6.03;5.00;;;;;;;;;;5040464;28;20433;-73
2023/06/10 09:16:43;;;;;;;8.03;5.57;;;;;;;;;;5050399;28;20475;-73
2023/06/10 09:19:09;;;;;;;6.73;5.07;;;;;;;;;;5045582;28;20428;-73
2023/06/10 09:21:38;;;;;;;5.70;5.20;;;;;;;;;;5046052;28;20860;-73
2023/06/10 09:24:05;;;;;;;6.37;5.67;;;;;;;;;;5045653;28;20428;-73
2023/06/10 09:26:31;;;;;;;5.63;5.23;;;;;;;;;;5041267;28;20432;-73
2023/06/10 09:29:08;;;;;;;6.30;5.70;;;;;;;;;;5041260;28;20436;-73
2023/06/10 09:31:38;;;;;;;6.50;5.90;;;;;;;;;;5047018;28;20542;-73
2023/06/10 09:34:14;;;;;;;6.53;5.80;;;;;;;;;;5046936;28;20491;-74
2023/06/10 09:36:41;;;;;;;6.40;5.43;;;;;;;;;;5038380;28;20563;-74
2023/06/10 09:39:17;;;;;;;6.07;5.57;;;;;;;;;;5050723;28;20505;-73
2023/06/10 09:41:44;;;;;;;6.33;5.73;;;;;;;;;;5045999;28;20432;-73
2023/06/10 09:44:14;;;;;;;5.93;5.33;;;;;;;;;;5046305;28;20442;-73
2023/06/10 09:46:40;;;;;;;6.70;5.90;;;;;;;;;;5050273;28;20761;-73
2023/06/10 09:49:06;;;;;;;6.40;5.70;;;;;;;;;;5045941;28;20434;-73
2023/06/10 09:51:33;;;;;;;6.13;5.53;;;;;;;;;;5037458;28;20436;-73
2023/06/10 09:53:59;;;;;;;6.70;6.10;;;;;;;;;;5046300;28;20459;-73
2023/06/10 09:56:35;;;;;;;6.90;5.33;;;;;;;;;;5043469;28;20570;-73
2023/06/10 09:59:01;;;;;;;7.17;6.13;;;;;;;;;;5041017;28;20939;-74
2023/06/10 10:01:27;;;;;;;6.00;5.50;;;;;;;;;;5053065;28;20523;-73
2023/06/10 10:03:53;;;;;;;6.67;6.03;;;;;;;;;;5046101;28;20535;-73
2023/06/10 10:06:20;;;;;;;5.63;5.10;;;;;;;;;;5048500;28;20812;-73
2023/06/10 10:08:47;;;;;;;6.80;5.70;;;;;;;;;;5048546;28;20514;-73
2023/06/10 10:11:15;;;;;;;9.10;6.40;;;;;;;;;;5043601;28;20431;-73
2023/06/10 10:13:41;;;;;;;6.20;5.60;;;;;;;;;;5045209;28;20793;-76
2023/06/10 10:16:11;;;;;;;6.33;5.73;;;;;;;;;;5042958;28;20483;-73
2023/06/10 10:18:39;;;;;;;5.67;5.20;;;;;;;;;;5041976;28;20429;-74
2023/06/10 10:21:07;;;;;;;6.50;6.00;;;;;;;;;;5044336;28;20449;-76
2023/06/10 10:23:38;;;;;;;6.10;5.60;;;;;;;;;;5043691;28;20433;-76
2023/06/10 10:26:07;;;;;;;6.33;5.73;;;;;;;;;;5043336;28;20828;-76
2023/06/10 10:28:38;;;;;;;7.03;6.43;;;;;;;;;;5045806;28;20487;-74
2023/06/10 10:31:10;;;;;;;6.27;5.73;;;;;;;;;;5047811;28;20761;-73
2023/06/10 10:33:48;;;;;;;6.73;6.20;;;;;;;;;;5043066;28;20448;-74
2023/06/10 10:36:14;;;;;;;8.23;6.00;;;;;;;;;;5039438;28;20836;-73
2023/06/10 10:38:41;;;;;;;6.10;5.50;;;;;;;;;;5039227;28;20455;-74
2023/06/10 10:41:07;;;;;;;5.80;5.33;;;;;;;;;;5040594;28;20459;-74
2023/06/10 10:43:33;;;;;;;5.90;5.40;;;;;;;;;;5047167;28;20432;-74
2023/06/10 10:46:03;;;;;;;6.00;5.40;;;;;;;;;;5044883;28;20456;-73
2023/06/10 10:48:38;;;;;;;6.57;5.83;;;;;;;;;;5044029;28;20459;-74
2023/06/10 10:51:04;;;;;;;6.17;5.60;;;;;;;;;;5038551;28;20432;-74
2023/06/10 10:53:30;;;;;;;6.43;5.90;;;;;;;;;;5043363;28;20950;-74
2023/06/10 10:56:17;;;;;;;6.03;5.40;;;;;;;;;;5041775;28;20542;-74
2023/06/10 10:58:58;;;;;;;6.17;5.53;;;;;;;;;;5035860;28;20408;-76
2023/06/10 11:01:24;;;;;;;6.70;6.00;;;;;;;;;;5043754;28;20416;-74
2023/06/10 11:03:50;;;;;;;6.40;5.80;;;;;;;;;;5046871;28;20765;-74
2023/06/10 11:06:18;;;;;;;6.60;6.00;;;;;;;;;;5044102;28;20891;-74
2023/06/10 11:08:46;;;;;;;6.53;5.93;;;;;;;;;;5043902;28;20416;-76
2023/06/10 11:11:20;;;;;;;5.90;5.40;;;;;;;;;;5041093;28;20439;-74
2023/06/10 11:14:18;;;;;;;5.63;5.10;;;;;;;;;;5043727;28;20881;-75
2023/06/10 11:16:44;;;;;;;5.93;5.43;;;;;;;;;;5030994;28;20482;-75
2023/06/10 11:19:11;;;;;;;9.27;4.87;;;;;;;;;;5040282;28;20416;-74
2023/06/10 11:21:57;;;;;;;5.53;5.00;;;;;;;;;;5042861;28;20515;-74
2023/06/10 11:24:23;;;;;;;5.70;5.30;;;;;;;;;;5042376;28;20975;-74
2023/06/10 11:26:49;;;;;;;6.57;5.90;;;;;;;;;;5041622;28;20445;-75
2023/06/10 11:29:15;;;;;;;8.70;5.30;;;;;;;;;;5039667;28;20420;-74
2023/06/10 11:31:41;;;;;;;6.00;5.50;;;;;;;;;;5049081;28;20471;-74
2023/06/10 11:34:07;;;;;;;8.37;5.27;;;;;;;;;;5046018;28;20486;-74
2023/06/10 11:36:34;;;;;;;6.20;5.60;;;;;;;;;;5045313;28;20486;-74
2023/06/10 11:39:04;;;;;;;5.90;5.40;;;;;;;;;;5040890;28;20527;-74
2023/06/10 11:41:31;;;;;;;5.17;4.77;;;;;;;;;;5044971;28;20455;-74
2023/06/10 11:43:57;;;;;;;5.93;5.43;;;;;;;;;;5040989;28;20433;-75
2023/06/10 11:46:23;;;;;;;6.20;5.70;;;;;;;;;;5037195;28;20543;-74
2023/06/10 11:48:50;;;;;;;5.60;5.10;;;;;;;;;;5041778;28;20567;-74
2023/06/10 11:51:16;;;;;;;5.80;5.13;;;;;;;;;;5045909;28;20424;-74
2023/06/10 11:53:44;;;;;;;5.90;4.80;;;;;;;;;;5039743;28;20421;-74
2023/06/10 11:56:10;;;;;;;5.70;5.20;;;;;;;;;;5046496;28;20827;-74
2023/06/10 11:58:36;;;;;;;5.93;5.33;;;;;;;;;;5042528;28;20432;-74
2023/06/10 12:01:02;;;;;;;5.93;5.30;;;;;;;;;;5042375;28;20428;-74
2023/06/10 12:03:37;;;;;;;5.53;5.03;;;;;;;;;;5053718;28;20439;-74
2023/06/10 12:06:04;;;;;;;5.10;4.60;;;;;;;;;;5047464;28;20443;-74
2023/06/10 12:08:30;;;;;;;6.20;4.47;;;;;;;;;;5045496;28;20963;-74
2023/06/10 12:10:57;;;;;;;6.43;4.93;;;;;;;;;;5051808;28;20518;-75
2023/06/10 12:13:24;;;;;;;6.17;5.67;;;;;;;;;;5043686;28;20429;-74
2023/06/10 12:15:50;;;;;;;5.90;5.50;;;;;;;;;;5040527;28;20495;-75
2023/06/10 12:18:20;;;;;;;5.97;5.47;;;;;;;;;;5051366;28;20422;-76
2023/06/10 12:20:46;;;;;;;6.20;5.60;;;;;;;;;;5049462;28;20420;-74
2023/06/10 12:23:12;;;;;;;6.63;6.13;;;;;;;;;;5039156;28;20435;-74
2023/06/10 12:25:39;;;;;;;6.10;5.60;;;;;;;;;;5047341;28;20441;-74
2023/06/10 12:28:06;;;;;;;6.13;5.60;;;;;;;;;;5050171;28;20420;-74
2023/06/10 12:30:32;;;;;;;6.63;6.13;;;;;;;;;;5042199;28;20432;-74
2023/06/10 12:32:58;;;;;;;6.93;6.43;;;;;;;;;;5041977;28;20554;-74
2023/06/10 12:35:25;;;;;;;6.63;6.13;;;;;;;;;;5048764;28;21063;-74
2023/06/10 12:38:01;;;;;;;6.30;5.80;;;;;;;;;;5046199;28;20465;-74
2023/06/10 12:40:31;;;;;;;6.90;6.40;;;;;;;;;;5044087;28;20444;-74
2023/06/10 12:42:58;;;;;;;15.17;5.43;;;;;;;;;;5051596;28;20436;-74
2023/06/10 12:45:44;;;;;;;5.47;4.97;;;;;;;;;;5044003;28;20458;-74
2023/06/10 12:48:21;;;;;;;5.40;4.90;;;;;;;;;;5045404;28;20462;-74
2023/06/10 12:50:53;;;;;;;5.77;5.20;;;;;;;;;;5048666;28;20435;-74
2023/06/10 12:53:20;;;;;;;7.83;5.00;;;;;;;;;;5046296;28;20432;-74
2023/06/10 12:55:47;;;;;;;5.60;5.10;;;;;;;;;;5045653;28;20467;-76
2023/06/10 12:58:13;;;;;;;5.20;4.80;;;;;;;;;;5048210;28;20998;-74
2023/06/10 13:00:40;;;;;;;5.80;5.30;;;;;;;;;;5044311;28;20432;-74
2023/06/10 13:03:06;;;;;;;5.80;4.93;;;;;;;;;;5042093;28;20460;-74
2023/06/10 13:05:33;;;;;;;4.83;4.43;;;;;;;;;;5041401;28;20577;-74
2023/06/10 13:07:59;;;;;;;6.07;5.57;;;;;;;;;;5043824;28;20428;-74
2023/06/10 13:10:25;;;;;;;7.40;5.20;;;;;;;;;;5043766;28;20437;-74
2023/06/10 13:12:52;;;;;;;5.40;5.00;;;;;;;;;;5045011;28;20436;-76
2023/06/10 13:15:18;;;;;;;5.60;5.13;;;;;;;;;;5043547;28;20475;-74
2023/06/10 13:17:49;;;;;;;5.40;5.00;;;;;;;;;;5045860;28;20498;-75
2023/06/10 13:20:16;;;;;;;4.30;4.00;;;;;;;;;;5047574;28;20416;-74
2023/06/10 13:22:42;;;;;;;5.20;4.70;;;;;;;;;;5048462;28;20800;-73
2023/06/10 13:25:08;;;;;;;5.70;5.20;;;;;;;;;;5049802;28;20424;-74
2023/06/10 13:27:35;;;;;;;5.30;4.73;;;;;;;;;;5042396;28;20435;-74
2023/06/10 13:30:01;;;;;;;5.40;4.90;;;;;;;;;;5046945;28;20470;-74
2023/06/10 13:32:27;;;;;;;5.07;4.67;;;;;;;;;;5054802;28;20480;-74
2023/06/10 13:34:53;;;;;;;5.60;4.80;;;;;;;;;;5042546;28;20423;-75
2023/06/10 13:37:20;;;;;;;5.03;4.53;;;;;;;;;;5045061;28;20440;-75
2023/06/10 13:39:50;;;;;;;5.67;4.90;;;;;;;;;;5044691;28;20408;-77
2023/06/10 13:42:20;;;;;;;5.30;4.70;;;;;;;;;;5049841;28;20415;-78
2023/06/10 13:44:47;;;;;;;6.40;4.50;;;;;;;;;;5043967;28;20421;-74
2023/06/10 13:47:13;;;;;;;4.83;4.43;;;;;;;;;;5041932;28;20522;-75
2023/06/10 13:49:39;;;;;;;7.63;4.57;;;;;;;;;;5049711;28;20432;-74
2023/06/10 13:52:06;;;;;;;4.50;4.10;;;;;;;;;;5046346;28;20432;-77
2023/06/10 13:54:32;;;;;;;4.63;4.33;;;;;;;;;;5044445;28;20434;-74
2023/06/10 13:57:00;;;;;;;5.53;4.23;;;;;;;;;;5045766;28;20480;-75
2023/06/10 13:59:26;;;;;;;5.27;3.90;;;;;;;;;;5042284;28;20440;-75
2023/06/10 14:01:52;;;;;;;4.83;4.43;;;;;;;;;;5042563;28;20999;-75
2023/06/10 14:04:18;;;;;;;5.13;4.73;;;;;;;;;;5046345;28;20436;-75
2023/06/10 14:06:44;;;;;;;4.97;4.57;;;;;;;;;;5042689;28;20901;-74
2023/06/10 14:09:10;;;;;;;6.37;5.00;;;;;;;;;;5046160;28;20432;-75
2023/06/10 14:11:36;;;;;;;5.20;4.47;;;;;;;;;;5042991;28;20428;-75
2023/06/10 14:14:02;;;;;;;4.40;4.00;;;;;;;;;;5044980;28;20459;-74
2023/06/10 14:16:28;;;;;;;5.47;4.97;;;;;;;;;;5041556;28;20472;-75
2023/06/10 14:18:55;;;;;;;4.50;3.90;;;;;;;;;;5041105;28;20444;-75
2023/06/10 14:21:21;;;;;;;5.40;4.83;;;;;;;;;;5043004;28;20433;-75
2023/06/10 14:23:48;;;;;;;4.90;4.50;;;;;;;;;;5045615;28;20515;-76
2023/06/10 14:26:14;;;;;;;6.20;4.40;;;;;;;;;;5046652;28;20456;-75
2023/06/10 14:28:40;;;;;;;4.40;4.00;;;;;;;;;;5042360;28;20427;-75
2023/06/10 14:31:07;;;;;;;4.90;4.50;;;;;;;;;;5046048;28;20409;-75
2023/06/10 14:33:33;;;;;;;4.77;4.37;;;;;;;;;;5042879;28;20501;-75